• Join FlightAware (Why Join?)
  • Login
  • US Flag 
03:21AM EST


 

Airport Tracker/Info


-or-


 

Live Flight TrackerFlight Track Log ✈ SWA407 ✈ 16-Apr-2013 ✈ KSAN - KLAS

Flight Track Log - Related Links

Times and Time Zones

All times are in EDT time to prevent confusion due to time zone crossing. See the SWA407 flight status page for this flight to view local times or setup timezone preferences in your user account.

Time Position Orientation Groundspeed Altitude Reporting Facility
EDT Latitude Longitude Course Direction KTS MPH feet Rate Location/Type
12:58AM 32.7500 -117.2167 296° West 155 178 2,200  Level Southern California TRACON
12:59AM 32.7681 -117.2603 296° West 164 189 6,200 4,380 Climbing Los Angeles Center
01:00AM 32.8050 -117.3125 310° West 191 220 11,300 3,960 Climbing Los Angeles Center
01:01AM 32.8475 -117.3708 311° West 230 265 14,300 1,860 Climbing Los Angeles Center
01:02AM 32.9025 -117.4456 311° West 291 335 15,500 2,640 Climbing Los Angeles Center
01:03AM 32.9808 -117.5383 315° West 333 383 20,200 4,200 Climbing Los Angeles Center
01:04AM 33.1075 -117.5639 350° North 381 438 24,200 3,360 Climbing Los Angeles Center
01:05AM 33.2147 -117.5894 349° North 390 449 27,100 2,340 Climbing Los Angeles Center
01:06AM 33.3278 -117.6150 349° North 407 468 29,000 900 Climbing Los Angeles Center
01:07AM 33.4442 -117.6392 350° North 423 487 29,000  Level Los Angeles Center
01:08AM 33.5600 -117.6669 349° North 425 489 29,000  Level Los Angeles Center
01:09AM 33.6753 -117.6939 349° North 424 488 29,000  Level Los Angeles Center
01:10AM 33.7911 -117.7200 349° North 426 490 29,000  Level Los Angeles Center
01:11AM 33.9083 -117.7467 349° North 429 494 29,000  Level Los Angeles Center
01:12AM 34.0517 -117.7614 355° North 446 513 29,000  Level Los Angeles Center
01:13AM 34.1625 -117.6603 37° Northeast 514 592 29,000  Level Los Angeles Center
01:14AM 34.2619 -117.5258 48° Northeast 534 615 29,000  Level Los Angeles Center
01:15AM 34.3606 -117.3942 48° Northeast 531 611 29,000  Level Los Angeles Center
01:16AM 34.4606 -117.2594 48° Northeast 521 600 29,000  Level Los Angeles Center
01:17AM 34.5592 -117.1256 48° Northeast 531 611 29,000  Level Los Angeles Center
01:18AM 34.6583 -116.9911 48° Northeast 537 618 29,000  Level Los Angeles Center
01:19AM 34.7561 -116.8556 49° Northeast 538 619 29,000 -840 Level Los Angeles Center
01:20AM 34.8564 -116.7194 48° Northeast 541 623 27,400 -1,500 Descending Los Angeles Center
01:21AM 34.9383 -116.6083 48° Northeast 551 634 26,000 -1,680 Descending Los Angeles Center
01:22AM 35.0614 -116.4500 46° Northeast 542 624 24,100 -900 Descending Los Angeles Center
01:24AM 35.1550 -116.3325 46° Northeast 502 578 24,000 -60 Descending Los Angeles Center
01:25AM 35.2872 -116.1708 45° Northeast 483 556 24,000 -1,080 Level Los Angeles Center
01:26AM 35.3772 -116.0547 46° Northeast 476 548 21,900 -2,580 Descending Los Angeles Center
01:27AM 35.4639 -115.9483 45° Northeast 455 524 18,800 -2,580 Descending Los Angeles Center
01:28AM 35.5386 -115.8461 48° Northeast 430 495 16,700 -2,220 Descending Los Angeles Center
01:29AM 35.6100 -115.7572 45° Northeast 398 458 14,400 -1,860 Descending Los Angeles Center
01:30AM 35.6786 -115.6725 45° Northeast 372 428 13,000 -780 Descending Los Angeles Center
01:30AM 35.7039 -115.5839 71° East 302 348 13,000 -900 Level Los Angeles Center
01:31AM 35.7256 -115.4844 75° East 301 346 11,400 -1,560 Descending Los Angeles Center
01:33AM 35.7639 -115.3686 68° East 304 350 9,600 -1,620 Descending Los Angeles Center
01:34AM 35.8208 -115.3156 37° Northeast 264 304 7,800 -1,380 Descending Los Angeles Center
01:35AM 35.8817 -115.2775 27° Northeast 261 300 6,800 -1,200 Descending Los Angeles Center
01:36AM 35.9400 -115.2450 24° Northeast 245 282 5,400 -1,440 Descending Los Angeles Center
01:36AM 35.9575 -115.2392 15° North 231 266 5,000 -600 Descending Los Angeles Center
01:37AM 35.9925 -115.2147 29° Northeast 240 276 4,800 -1,020 Descending Los Angeles Center
01:38AM 36.0381 -115.1914 22° Northeast 138 159 3,100 -1,260 Descending Los Angeles Center
01:38AM 36.0508 -115.1814 32° Northeast 154 177 2,800 -780 Descending Los Angeles Center
01:39AM 36.0667 -115.1739 21° North 128 147 2,400 -240 Descending Los Angeles Center
01:39AM 36.0811 -115.1658 24° Northeast 126 145 2,600 360 Climbing Los Angeles Center
01:41AM 36.0801 -115.1523 95° East  Level Estimated
01:48AM 36.0801 -115.1523 270° West  Level Estimated